Time;durP1;ratioP1;P1;durP2;ratioP2;P2;SDS_P1;SDS_P2;PMS_P1;PMS_P2;Temp;Humidity;BMP_temperature;BMP_pressure;BME280_temperature;BME280_humidity;BME280_pressure;Samples;Min_cycle;Max_cycle;Signal;HPM_P1;HPM_P2
2021/10/21 00:00:51;;;;;;;10.45;9.60;;;14.20;99.90;;;;;;4940524;29;20035;-75
2021/10/21 00:03:18;;;;;;;10.88;9.90;;;14.30;99.90;;;;;;4957751;29;20486;-75
2021/10/21 00:05:44;;;;;;;11.23;10.18;;;14.30;99.90;;;;;;4945508;29;20031;-76
2021/10/21 00:08:11;;;;;;;11.32;10.32;;;14.30;99.90;;;;;;4947615;29;20039;-75
2021/10/21 00:10:39;;;;;;;11.45;10.35;;;14.30;99.90;;;;;;4955948;29;20035;-75
2021/10/21 00:13:05;;;;;;;10.88;9.93;;;14.30;99.90;;;;;;4956255;29;20039;-76
2021/10/21 00:15:32;;;;;;;11.02;9.93;;;14.30;99.90;;;;;;4950251;29;20052;-75
2021/10/21 00:17:58;;;;;;;9.50;8.80;;;14.30;99.90;;;;;;4949428;29;20047;-84
2021/10/21 00:20:26;;;;;;;9.10;8.35;;;14.30;99.90;;;;;;4946952;29;20050;-75
2021/10/21 00:22:53;;;;;;;10.27;9.40;;;14.30;99.90;;;;;;4945886;29;20047;-76
2021/10/21 00:25:19;;;;;;;10.00;9.10;;;14.30;99.90;;;;;;4932601;29;20058;-76
2021/10/21 00:27:46;;;;;;;10.38;9.48;;;14.20;99.90;;;;;;4965414;29;20047;-76
2021/10/21 00:30:12;;;;;;;9.20;8.40;;;14.20;99.90;;;;;;4959500;29;20047;-75
2021/10/21 00:32:39;;;;;;;8.75;7.97;;;14.20;99.90;;;;;;4942081;29;20054;-76
2021/10/21 00:35:06;;;;;;;7.43;6.80;;;14.20;99.90;;;;;;4943008;29;20039;-76
2021/10/21 00:37:32;;;;;;;7.65;6.95;;;14.20;99.90;;;;;;4942067;29;20044;-77
2021/10/21 00:39:58;;;;;;;8.68;7.82;;;14.20;99.90;;;;;;4936949;29;20032;-77
2021/10/21 00:42:24;;;;;;;6.75;6.15;;;14.20;99.90;;;;;;4937556;29;20057;-78
2021/10/21 00:44:50;;;;;;;6.63;5.93;;;14.10;99.90;;;;;;4941027;29;20389;-77
2021/10/21 00:47:17;;;;;;;6.85;6.25;;;14.10;99.90;;;;;;4939413;29;20476;-79
2021/10/21 00:49:43;;;;;;;6.00;5.25;;;14.20;99.90;;;;;;4937835;29;20046;-79
2021/10/21 00:52:09;;;;;;;6.75;5.82;;;14.20;99.90;;;;;;4937235;29;20023;-79
2021/10/21 00:54:36;;;;;;;6.22;4.35;;;14.20;99.90;;;;;;4936661;29;20027;-78
2021/10/21 00:57:05;;;;;;;6.80;5.30;;;14.20;99.90;;;;;;4936090;29;20417;-78
2021/10/21 00:59:33;;;;;;;5.35;4.85;;;14.10;99.90;;;;;;4936388;29;20031;-77
2021/10/21 01:01:59;;;;;;;5.60;5.10;;;14.20;99.90;;;;;;4936774;29;20032;-78
2021/10/21 01:04:26;;;;;;;5.97;5.47;;;14.10;99.90;;;;;;4936465;29;20051;-77
2021/10/21 01:06:53;;;;;;;7.55;6.43;;;14.20;99.90;;;;;;4919639;29;20422;-79
2021/10/21 01:09:19;;;;;;;6.25;5.72;;;14.20;99.90;;;;;;4936364;29;20035;-77
2021/10/21 01:11:46;;;;;;;7.45;5.65;;;14.20;99.90;;;;;;4939892;29;20062;-77
2021/10/21 01:14:13;;;;;;;9.50;5.75;;;14.20;99.90;;;;;;4936970;29;20035;-76
2021/10/21 01:16:40;;;;;;;6.22;5.65;;;14.20;99.90;;;;;;4936983;29;20079;-77
2021/10/21 01:19:17;;;;;;;7.93;5.65;;;14.20;99.90;;;;;;4936679;29;20035;-78
2021/10/21 01:21:45;;;;;;;6.13;5.60;;;14.10;99.90;;;;;;4936630;29;20035;-76
2021/10/21 01:24:11;;;;;;;6.28;5.68;;;14.20;99.90;;;;;;4935742;29;20032;-77
2021/10/21 01:26:38;;;;;;;5.65;5.13;;;14.30;99.90;;;;;;4936854;29;20051;-78
2021/10/21 01:29:05;;;;;;;7.93;5.45;;;14.30;99.90;;;;;;4935951;29;20381;-78
2021/10/21 01:31:31;;;;;;;6.22;5.72;;;14.30;99.90;;;;;;4935269;29;20032;-78
2021/10/21 01:33:57;;;;;;;6.40;5.70;;;14.40;99.90;;;;;;4936331;29;20031;-76
2021/10/21 01:36:23;;;;;;;6.65;5.72;;;14.40;99.90;;;;;;4936318;29;20046;-79
2021/10/21 01:38:49;;;;;;;4.85;4.32;;;14.40;99.90;;;;;;4951951;29;20043;-80
2021/10/21 01:41:16;;;;;;;4.80;4.40;;;14.50;99.90;;;;;;4936277;29;20036;-77
2021/10/21 01:43:43;;;;;;;5.70;5.15;;;14.50;99.90;;;;;;4936767;29;20036;-77
2021/10/21 01:46:10;;;;;;;6.32;4.07;;;14.60;99.90;;;;;;4939055;29;20044;-77
2021/10/21 01:48:36;;;;;;;5.28;4.75;;;14.60;99.90;;;;;;4938814;29;20047;-79
2021/10/21 01:51:03;;;;;;;5.80;4.80;;;14.60;99.90;;;;;;4939704;29;20043;-78
2021/10/21 01:53:30;;;;;;;5.07;4.60;;;14.60;99.90;;;;;;4946515;29;20035;-78
2021/10/21 01:55:56;;;;;;;4.68;4.25;;;14.70;99.90;;;;;;4946157;29;20039;-77
2021/10/21 01:58:22;;;;;;;4.68;4.28;;;14.60;99.90;;;;;;4937402;29;20035;-75
2021/10/21 02:00:49;;;;;;;4.43;4.03;;;14.70;99.90;;;;;;4936412;29;20035;-78
2021/10/21 02:03:15;;;;;;;4.97;4.30;;;14.70;99.90;;;;;;4935990;29;20388;-80
2021/10/21 02:05:41;;;;;;;5.68;5.00;;;14.70;99.90;;;;;;4951152;29;20044;-77
2021/10/21 02:08:07;;;;;;;7.38;4.15;;;14.70;99.90;;;;;;4934697;29;20032;-79
2021/10/21 02:10:33;;;;;;;5.65;4.60;;;14.70;99.90;;;;;;4935364;29;20143;-77
2021/10/21 02:13:00;;;;;;;11.57;5.78;;;14.70;99.90;;;;;;4937945;29;20035;-79
2021/10/21 02:15:26;;;;;;;6.07;5.18;;;14.70;99.90;;;;;;4938355;29;20075;-79
2021/10/21 02:17:52;;;;;;;5.55;5.05;;;14.70;99.90;;;;;;4938896;29;20036;-76
2021/10/21 02:20:18;;;;;;;6.90;5.38;;;14.70;99.90;;;;;;4938268;29;20050;-78
2021/10/21 02:22:50;;;;;;;5.82;5.13;;;14.70;99.90;;;;;;4938054;29;20101;-77
2021/10/21 02:25:17;;;;;;;6.38;5.78;;;14.70;99.90;;;;;;4938969;29;20032;-78
2021/10/21 02:27:43;;;;;;;9.23;6.53;;;14.70;99.90;;;;;;4938784;29;20040;-78
2021/10/21 02:30:11;;;;;;;13.32;6.93;;;14.70;99.90;;;;;;4939607;29;20039;-77
2021/10/21 02:32:41;;;;;;;9.65;6.82;;;14.70;99.90;;;;;;4938636;29;20480;-77
2021/10/21 02:35:09;;;;;;;6.38;5.88;;;14.70;99.90;;;;;;4938230;29;20032;-78
2021/10/21 02:37:36;;;;;;;8.80;7.35;;;14.60;99.90;;;;;;4938800;29;20392;-76
2021/10/21 02:40:05;;;;;;;9.88;7.93;;;14.60;99.90;;;;;;4938904;29;20035;-77
2021/10/21 02:42:31;;;;;;;8.48;7.65;;;14.50;99.90;;;;;;4938398;29;20047;-78
2021/10/21 02:44:58;;;;;;;10.48;9.35;;;14.50;99.90;;;;;;4953481;29;20054;-78
2021/10/21 02:47:24;;;;;;;7.32;6.65;;;14.50;99.90;;;;;;4937202;29;20051;-77
2021/10/21 02:49:50;;;;;;;8.90;8.10;;;14.40;99.90;;;;;;4938585;29;20389;-79
2021/10/21 02:52:17;;;;;;;8.40;7.60;;;14.40;99.90;;;;;;4946052;29;20027;-79
2021/10/21 02:54:43;;;;;;;8.30;7.55;;;14.40;99.90;;;;;;4938769;29;20062;-78
2021/10/21 02:57:09;;;;;;;8.45;7.35;;;14.40;99.90;;;;;;4938510;29;20043;-79
2021/10/21 02:59:35;;;;;;;7.60;6.18;;;14.30;99.90;;;;;;4938550;29;20042;-79
2021/10/21 03:02:02;;;;;;;8.07;6.00;;;14.30;99.90;;;;;;4938853;29;20036;-78
2021/10/21 03:04:28;;;;;;;6.25;5.57;;;14.20;99.90;;;;;;4938223;29;20242;-80
2021/10/21 03:06:54;;;;;;;6.97;4.85;;;14.30;99.90;;;;;;4938797;29;20405;-79
2021/10/21 03:09:20;;;;;;;9.55;4.20;;;14.20;99.90;;;;;;4939088;29;20038;-78
2021/10/21 03:11:47;;;;;;;6.30;4.00;;;14.20;99.90;;;;;;4938620;29;20035;-78
2021/10/21 03:14:13;;;;;;;3.90;3.47;;;14.20;99.90;;;;;;4952468;29;20040;-81
2021/10/21 03:16:39;;;;;;;4.88;3.67;;;14.10;99.90;;;;;;4938872;29;20397;-80
2021/10/21 03:19:06;;;;;;;4.03;2.35;;;14.00;99.90;;;;;;4938379;29;20048;-78
2021/10/21 03:21:33;;;;;;;5.43;1.83;;;13.80;99.90;;;;;;4937751;29;20457;-77
2021/10/21 03:23:59;;;;;;;2.78;1.67;;;13.70;99.90;;;;;;4938066;29;20032;-78
2021/10/21 03:26:26;;;;;;;5.35;2.00;;;13.70;99.90;;;;;;4937750;29;20028;-79
2021/10/21 03:28:53;;;;;;;1.77;1.30;;;13.70;99.90;;;;;;4937829;29;20050;-78
2021/10/21 03:31:19;;;;;;;1.42;0.90;;;13.50;99.90;;;;;;4937475;29;20043;-78
2021/10/21 03:33:46;;;;;;;1.92;0.88;;;13.50;99.90;;;;;;4937904;29;20470;-80
2021/10/21 03:36:12;;;;;;;4.22;2.83;;;13.40;99.90;;;;;;4937659;29;20039;-77
2021/10/21 03:38:39;;;;;;;2.28;1.35;;;13.30;99.90;;;;;;4952991;29;20460;-77
2021/10/21 03:41:05;;;;;;;2.40;1.17;;;13.40;99.90;;;;;;4938477;29;20047;-76
2021/10/21 03:43:31;;;;;;;1.95;1.05;;;13.50;99.90;;;;;;4946492;29;20034;-76
2021/10/21 03:45:58;;;;;;;5.93;1.52;;;13.50;99.90;;;;;;4941594;29;20388;-78
2021/10/21 03:48:24;;;;;;;10.23;1.40;;;13.30;99.90;;;;;;4940211;29;20035;-77
2021/10/21 03:50:50;;;;;;;3.30;1.52;;;13.20;99.90;;;;;;4960213;29;20044;-80
2021/10/21 03:53:16;;;;;;;5.15;2.05;;;13.20;98.70;;;;;;4956595;29;20038;-80
2021/10/21 03:55:43;;;;;;;4.35;1.48;;;13.20;99.20;;;;;;4940279;29;20042;-79
2021/10/21 03:58:09;;;;;;;2.38;0.88;;;13.00;99.50;;;;;;4938042;29;20043;-79
2021/10/21 04:00:36;;;;;;;3.35;1.73;;;13.00;98.00;;;;;;4952288;29;20492;-79
2021/10/21 04:03:02;;;;;;;4.07;1.75;;;13.10;97.10;;;;;;4937786;29;20036;-77
2021/10/21 04:05:28;;;;;;;18.50;1.92;;;13.10;94.90;;;;;;4938092;29;20032;-78
2021/10/21 04:07:54;;;;;;;2.78;1.48;;;13.20;93.70;;;;;;4938645;29;20042;-79
2021/10/21 04:10:20;;;;;;;8.05;1.42;;;13.10;92.90;;;;;;4937111;29;20044;-80
2021/10/21 04:12:47;;;;;;;3.60;1.70;;;13.10;91.70;;;;;;4940347;29;20032;-81
2021/10/21 04:15:13;;;;;;;5.45;1.33;;;13.10;93.20;;;;;;4936798;29;20044;-81
2021/10/21 04:17:39;;;;;;;5.80;1.70;;;13.20;91.10;;;;;;4937362;29;20058;-78
2021/10/21 04:20:06;;;;;;;2.95;1.45;;;13.30;88.70;;;;;;4937007;29;20039;-79
2021/10/21 04:22:33;;;;;;;6.60;1.98;;;13.40;87.50;;;;;;4937381;29;20036;-79
2021/10/21 04:24:59;;;;;;;1.67;0.93;;;13.50;84.10;;;;;;4937460;29;20098;-78
2021/10/21 04:27:25;;;;;;;2.97;1.20;;;13.50;85.30;;;;;;4936877;29;20039;-80
2021/10/21 04:29:51;;;;;;;5.18;1.70;;;13.60;83.20;;;;;;4937316;29;20036;-77
2021/10/21 04:32:17;;;;;;;13.60;3.70;;;13.60;81.60;;;;;;4939475;29;20467;-78
2021/10/21 04:34:44;;;;;;;9.15;1.73;;;13.70;80.00;;;;;;4937519;29;20036;-78
2021/10/21 04:37:10;;;;;;;3.75;1.42;;;13.70;79.00;;;;;;4938841;29;20389;-78
2021/10/21 04:39:36;;;;;;;4.72;1.33;;;13.80;78.30;;;;;;4955895;29;20039;-79
2021/10/21 04:42:02;;;;;;;2.63;1.25;;;13.80;78.00;;;;;;4956592;29;20470;-79
2021/10/21 04:44:29;;;;;;;4.82;1.75;;;13.80;78.60;;;;;;4957483;29;20039;-79
2021/10/21 04:46:55;;;;;;;3.25;1.50;;;13.80;77.40;;;;;;4957899;29;20047;-80
2021/10/21 04:49:21;;;;;;;9.70;1.60;;;13.80;77.10;;;;;;4955579;29;20464;-77
2021/10/21 04:51:47;;;;;;;7.78;1.73;;;13.90;77.00;;;;;;4955971;29;20050;-79
2021/10/21 04:54:14;;;;;;;6.13;1.70;;;13.90;76.10;;;;;;4954857;29;20042;-78
2021/10/21 04:56:41;;;;;;;6.00;1.45;;;13.90;76.30;;;;;;4968228;28;20037;-76
2021/10/21 04:59:07;;;;;;;5.75;1.88;;;13.90;75.40;;;;;;4955509;29;20429;-81
2021/10/21 05:01:33;;;;;;;3.20;1.67;;;14.00;73.70;;;;;;4969665;28;20385;-78
2021/10/21 05:03:59;;;;;;;5.13;1.95;;;14.10;72.50;;;;;;4953802;28;20491;-77
2021/10/21 05:06:26;;;;;;;4.72;1.55;;;14.20;73.00;;;;;;4954744;29;20028;-79
2021/10/21 05:08:52;;;;;;;12.23;2.25;;;14.20;72.50;;;;;;4955861;29;20400;-78
2021/10/21 05:11:19;;;;;;;4.93;1.60;;;14.20;72.70;;;;;;4955051;29;20039;-78
2021/10/21 05:13:45;;;;;;;6.50;2.00;;;14.20;72.10;;;;;;4955711;29;20365;-80
2021/10/21 05:16:11;;;;;;;3.13;1.55;;;14.20;71.90;;;;;;4956262;29;20074;-79
2021/10/21 05:18:37;;;;;;;2.53;1.38;;;14.10;72.70;;;;;;4954927;29;20062;-81
2021/10/21 05:21:04;;;;;;;8.32;2.33;;;14.10;73.10;;;;;;4955836;29;20038;-80
2021/10/21 05:23:30;;;;;;;17.08;2.40;;;13.90;73.00;;;;;;4942669;29;20032;-78
2021/10/21 05:25:56;;;;;;;7.82;1.48;;;13.90;72.80;;;;;;4936292;29;20358;-78
2021/10/21 05:28:22;;;;;;;2.92;1.58;;;14.10;72.40;;;;;;4935728;29;20047;-78
2021/10/21 05:30:48;;;;;;;2.55;1.73;;;14.00;72.70;;;;;;4936589;29;20146;-79
2021/10/21 05:33:14;;;;;;;7.55;2.28;;;13.90;73.90;;;;;;4936238;29;20043;-81
2021/10/21 05:35:41;;;;;;;7.53;2.50;;;13.80;73.50;;;;;;4935455;29;20066;-78
2021/10/21 05:38:07;;;;;;;4.13;2.47;;;13.80;73.00;;;;;;4936031;29;20040;-80
2021/10/21 05:40:34;;;;;;;11.13;2.03;;;13.80;72.50;;;;;;4935338;29;20036;-83
2021/10/21 05:43:00;;;;;;;5.38;2.03;;;13.90;72.00;;;;;;4936050;29;20051;-78
2021/10/21 05:45:26;;;;;;;6.05;1.75;;;13.90;72.30;;;;;;4935257;29;20028;-79
2021/10/21 05:47:53;;;;;;;6.50;1.75;;;13.80;72.60;;;;;;4935405;29;20039;-80
2021/10/21 05:50:19;;;;;;;14.80;2.38;;;13.80;72.70;;;;;;4935561;29;20035;-77
2021/10/21 05:52:46;;;;;;;8.52;1.92;;;13.90;71.80;;;;;;4936101;29;20032;-80
2021/10/21 05:55:12;;;;;;;6.63;1.50;;;13.80;72.30;;;;;;4936172;29;20039;-78
2021/10/21 05:57:38;;;;;;;3.40;1.40;;;13.70;73.40;;;;;;4936266;29;20042;-77
2021/10/21 06:00:05;;;;;;;3.75;1.50;;;13.80;72.10;;;;;;4935880;29;20038;-80
2021/10/21 06:02:37;;;;;;;7.78;1.73;;;13.70;72.80;;;;;;4941423;29;20392;-79
2021/10/21 06:05:05;;;;;;;7.03;1.80;;;13.70;72.20;;;;;;4935286;29;20043;-80
2021/10/21 06:07:31;;;;;;;12.98;1.52;;;13.80;71.90;;;;;;4938176;29;20051;-77
2021/10/21 06:09:58;;;;;;;4.43;1.50;;;13.80;70.90;;;;;;4943214;29;20050;-79
2021/10/21 06:12:25;;;;;;;3.97;1.52;;;13.80;70.90;;;;;;4958287;29;20027;-79
2021/10/21 06:14:51;;;;;;;3.78;1.73;;;13.90;70.50;;;;;;4959739;29;20420;-77
2021/10/21 06:17:19;;;;;;;3.03;1.35;;;13.90;69.60;;;;;;4960195;29;20039;-77
2021/10/21 06:19:45;;;;;;;4.05;1.83;;;14.00;69.80;;;;;;4968924;29;20035;-77
2021/10/21 06:22:13;;;;;;;2.08;1.20;;;14.00;70.20;;;;;;4963751;29;20039;-77
2021/10/21 06:24:39;;;;;;;4.38;1.45;;;13.90;71.00;;;;;;4958996;28;20219;-79
2021/10/21 06:27:06;;;;;;;2.25;1.17;;;13.80;74.10;;;;;;4956803;28;20384;-80
2021/10/21 06:29:32;;;;;;;4.78;1.63;;;13.60;75.10;;;;;;4948927;28;20043;-81
2021/10/21 06:32:00;;;;;;;5.85;1.40;;;13.50;75.40;;;;;;4956964;29;20073;-82
2021/10/21 06:34:26;;;;;;;9.52;1.55;;;13.50;74.50;;;;;;4958920;29;20376;-82
2021/10/21 06:36:53;;;;;;;0.95;0.55;;;13.30;75.80;;;;;;4953918;29;20484;-80
2021/10/21 06:39:19;;;;;;;4.72;1.10;;;13.30;74.50;;;;;;4953537;29;20050;-82
2021/10/21 06:41:46;;;;;;;1.80;1.02;;;13.40;74.80;;;;;;4954453;29;20034;-80
2021/10/21 06:44:15;;;;;;;3.40;1.20;;;13.30;76.80;;;;;;4954905;29;20042;-80
2021/10/21 06:46:41;;;;;;;10.52;1.48;;;13.10;77.60;;;;;;4953290;29;20445;-80
2021/10/21 06:49:08;;;;;;;3.60;1.35;;;13.00;79.60;;;;;;4952792;29;20047;-78
2021/10/21 06:51:34;;;;;;;5.72;1.42;;;12.90;80.40;;;;;;4953914;28;20054;-82
2021/10/21 06:54:00;;;;;;;3.65;1.25;;;12.80;80.10;;;;;;4946817;29;20034;-83
2021/10/21 06:56:26;;;;;;;1.63;0.85;;;12.80;81.00;;;;;;4951548;29;20031;-79
2021/10/21 06:58:53;;;;;;;3.72;0.98;;;12.80;81.30;;;;;;4954118;28;20043;-80
2021/10/21 07:01:19;;;;;;;5.72;1.38;;;12.90;80.90;;;;;;4947575;29;20039;-77
2021/10/21 07:03:47;;;;;;;2.35;1.23;;;12.90;80.80;;;;;;4954930;29;20039;-79
2021/10/21 07:06:14;;;;;;;3.67;0.98;;;13.00;81.60;;;;;;4957828;29;20039;-78
2021/10/21 07:08:40;;;;;;;3.10;0.73;;;13.00;80.30;;;;;;4971663;28;20484;-78
2021/10/21 07:11:09;;;;;;;3.78;0.95;;;13.00;79.70;;;;;;4958441;29;20038;-82
2021/10/21 07:13:36;;;;;;;2.20;0.73;;;13.00;80.20;;;;;;4957400;29;20400;-80
2021/10/21 07:16:06;;;;;;;10.07;1.13;;;13.00;81.00;;;;;;4967305;28;20059;-79
2021/10/21 07:18:32;;;;;;;1.83;0.75;;;12.90;81.90;;;;;;4975145;28;20039;-85
2021/10/21 07:20:59;;;;;;;4.13;0.85;;;13.00;81.30;;;;;;4977274;28;20034;-86
2021/10/21 07:23:25;;;;;;;1.00;0.60;;;12.90;81.10;;;;;;4980266;28;20042;-85
2021/10/21 07:25:52;;;;;;;5.85;0.98;;;12.90;81.60;;;;;;4977402;28;20042;-82
2021/10/21 07:28:21;;;;;;;3.00;0.63;;;12.90;81.20;;;;;;4974402;28;20035;-83
2021/10/21 07:30:52;;;;;;;4.88;0.73;;;13.00;80.60;;;;;;4947679;29;20051;-82
2021/10/21 07:33:18;;;;;;;2.47;0.70;;;13.10;80.80;;;;;;4973506;29;20039;-84
2021/10/21 07:35:45;;;;;;;1.33;0.65;;;13.30;80.50;;;;;;4969040;28;20412;-85
2021/10/21 07:38:12;;;;;;;0.75;0.50;;;13.60;79.80;;;;;;4958617;28;20046;-83
2021/10/21 07:40:38;;;;;;;1.75;0.70;;;13.60;79.00;;;;;;4957647;29;20035;-81
2021/10/21 07:43:04;;;;;;;4.82;0.75;;;13.30;80.20;;;;;;4939876;29;20043;-82
2021/10/21 07:45:33;;;;;;;0.52;0.43;;;13.10;80.80;;;;;;4940668;29;20365;-83
2021/10/21 07:47:59;;;;;;;6.75;0.65;;;13.10;81.20;;;;;;4957563;28;20043;-81
2021/10/21 07:50:26;;;;;;;4.78;0.40;;;13.10;81.30;;;;;;4958914;29;20046;-83
2021/10/21 07:52:52;;;;;;;3.40;0.55;;;13.00;81.80;;;;;;4941114;29;20043;-82
2021/10/21 07:55:20;;;;;;;3.63;0.60;;;12.90;82.30;;;;;;4959061;29;20035;-80
2021/10/21 07:57:46;;;;;;;1.92;0.40;;;12.90;82.30;;;;;;4940660;29;20404;-81
2021/10/21 08:00:13;;;;;;;1.60;0.50;;;12.70;82.90;;;;;;4958144;28;20054;-81
2021/10/21 08:02:43;;;;;;;1.75;0.40;;;12.60;83.90;;;;;;4949231;29;20388;-80
2021/10/21 08:05:10;;;;;;;0.52;0.40;;;12.60;84.70;;;;;;4939438;29;20404;-80
2021/10/21 08:07:46;;;;;;;1.48;0.50;;;12.50;85.40;;;;;;4939827;29;20032;-80
2021/10/21 08:10:18;;;;;;;1.15;0.65;;;12.50;84.90;;;;;;4945427;29;20043;-82
2021/10/21 08:12:50;;;;;;;0.70;0.43;;;12.50;84.60;;;;;;4944564;29;20035;-81
2021/10/21 08:15:16;;;;;;;3.53;0.50;;;12.50;83.60;;;;;;4946045;29;20052;-85
2021/10/21 08:17:44;;;;;;;0.90;0.40;;;12.50;83.10;;;;;;4944611;29;20050;-81
2021/10/21 08:20:13;;;;;;;1.02;0.40;;;12.50;82.40;;;;;;4929144;29;20039;-82
2021/10/21 08:22:54;;;;;;;0.60;0.22;;;12.60;82.00;;;;;;4939134;29;20074;-85
2021/10/21 08:25:25;;;;;;;0.68;0.30;;;12.60;81.30;;;;;;4896697;29;20517;-82
2021/10/21 08:27:52;;;;;;;2.22;0.43;;;12.70;80.80;;;;;;4924697;29;20051;-83
2021/10/21 08:30:24;;;;;;;0.90;0.40;;;12.70;79.90;;;;;;4921224;29;20059;-81
2021/10/21 08:32:57;;;;;;;2.50;0.45;;;12.80;79.80;;;;;;4920988;29;20055;-81
2021/10/21 08:35:25;;;;;;;0.57;0.30;;;12.70;80.50;;;;;;4937503;29;20040;-79
2021/10/21 08:37:51;;;;;;;7.72;0.73;;;12.70;80.70;;;;;;4939077;29;20436;-83
2021/10/21 08:40:17;;;;;;;0.50;0.30;;;12.60;80.40;;;;;;4937129;29;20524;-83
2021/10/21 08:42:45;;;;;;;2.13;0.40;;;12.70;80.80;;;;;;4936703;29;20044;-81
2021/10/21 08:45:12;;;;;;;5.63;0.47;;;12.70;80.10;;;;;;4920790;29;20048;-82
2021/10/21 08:47:42;;;;;;;2.05;0.40;;;12.90;78.80;;;;;;4922837;29;20027;-83
2021/10/21 08:50:11;;;;;;;0.65;0.35;;;12.80;79.60;;;;;;4944470;29;20040;-80
2021/10/21 08:52:37;;;;;;;10.10;0.65;;;13.00;78.90;;;;;;4954237;29;20036;-73
2021/10/21 08:55:04;;;;;;;4.43;0.52;;;13.20;79.00;;;;;;4950215;29;20392;-79
2021/10/21 08:57:32;;;;;;;0.52;0.28;;;13.20;78.30;;;;;;4954012;29;20372;-79
2021/10/21 08:59:58;;;;;;;0.82;0.30;;;13.40;76.80;;;;;;4949129;29;20035;-78
2021/10/21 09:05:40;;;;;;;1.42;0.35;;;14.30;72.50;;;;;;4905581;29;20062;-78
2021/10/21 09:08:14;;;;;;;2.15;0.70;;;14.50;70.00;;;;;;4952343;29;20071;-79
2021/10/21 09:10:49;;;;;;;5.97;0.30;;;13.90;71.00;;;;;;4951441;28;20039;-77
2021/10/21 09:13:38;;;;;;;2.60;0.65;;;13.70;71.60;;;;;;4956060;29;20062;-77
2021/10/21 09:16:09;;;;;;;2.17;0.40;;;13.70;72.90;;;;;;4956463;29;20054;-77
2021/10/21 09:18:47;;;;;;;;;;;13.50;73.00;;;;;;4947301;29;20396;-76
2021/10/21 09:21:40;;;;;;;1.67;0.60;;;13.40;73.00;;;;;;4935603;29;19910;-75
2021/10/21 09:24:31;;;;;;;1.45;0.60;;;13.20;72.70;;;;;;4937887;29;20039;-77
2021/10/21 09:27:06;;;;;;;0.93;0.50;;;13.20;72.00;;;;;;4926909;29;20390;-75
2021/10/21 09:29:34;;;;;;;3.88;1.00;;;13.20;71.50;;;;;;4916647;29;20039;-75
2021/10/21 09:32:06;;;;;;;4.50;1.10;;;13.20;71.10;;;;;;4929494;29;20420;-76
2021/10/21 09:34:50;;;;;;;13.60;1.65;;;13.20;71.60;;;;;;4932442;29;20032;-72
2021/10/21 09:37:26;;;;;;;4.43;0.70;;;13.20;72.20;;;;;;4931246;29;20039;-71
2021/10/21 09:39:56;;;;;;;2.28;0.88;;;13.30;70.50;;;;;;4930852;29;20032;-71
2021/10/21 09:42:30;;;;;;;0.80;0.47;;;13.30;69.60;;;;;;4933308;29;20038;-72
2021/10/21 09:45:13;;;;;;;1.02;0.70;;;13.20;69.60;;;;;;4932867;29;20031;-72
2021/10/21 09:47:44;;;;;;;1.17;0.57;;;13.20;69.00;;;;;;4933575;29;20032;-71
2021/10/21 09:50:32;;;;;;;1.15;0.65;;;13.20;69.90;;;;;;4919505;29;20496;-76
2021/10/21 09:53:07;;;;;;;1.73;1.10;;;13.30;68.60;;;;;;4924027;29;20027;-75
2021/10/21 09:55:34;;;;;;;1.50;0.88;;;13.20;67.90;;;;;;4934889;29;20037;-72
2021/10/21 09:58:06;;;;;;;1.90;0.50;;;13.20;68.80;;;;;;4923026;29;20036;-74
2021/10/21 10:00:35;;;;;;;3.78;0.80;;;13.30;68.20;;;;;;4915745;29;20044;-77
2021/10/21 10:03:21;;;;;;;1.95;0.82;;;13.30;69.50;;;;;;4915966;29;20385;-72
2021/10/21 10:05:54;;;;;;;1.38;0.70;;;13.40;68.20;;;;;;4916110;29;20036;-71
2021/10/21 10:08:23;;;;;;;2.35;0.90;;;13.30;67.90;;;;;;4915598;29;20058;-71
2021/10/21 10:10:51;;;;;;;4.80;0.90;;;13.30;68.60;;;;;;4915830;29;20123;-73
2021/10/21 10:13:19;;;;;;;3.50;0.88;;;13.20;68.40;;;;;;4898905;29;20044;-75
2021/10/21 10:15:47;;;;;;;3.80;0.80;;;13.30;69.10;;;;;;4923382;29;20063;-73
2021/10/21 10:18:39;;;;;;;4.72;1.10;;;13.30;68.60;;;;;;4934909;28;20038;-74
2021/10/21 10:21:35;;;;;;;1.23;0.82;;;13.30;69.10;;;;;;4934795;29;20054;-73
2021/10/21 10:24:12;;;;;;;1.45;0.90;;;13.30;69.30;;;;;;4935210;29;20036;-74
2021/10/21 10:26:46;;;;;;;4.90;1.08;;;13.30;69.90;;;;;;4935180;29;20036;-74
2021/10/21 10:29:20;;;;;;;2.83;0.80;;;13.30;69.80;;;;;;4936105;29;20036;-71
2021/10/21 10:31:49;;;;;;;3.08;1.23;;;13.30;69.50;;;;;;4935120;29;20372;-72
2021/10/21 10:34:34;;;;;;;2.90;1.03;;;13.40;68.50;;;;;;4938594;29;20038;-72
2021/10/21 10:37:13;;;;;;;4.00;0.90;;;13.50;69.10;;;;;;4953981;28;20055;-74
2021/10/21 10:39:51;;;;;;;3.10;0.82;;;13.50;68.90;;;;;;4938864;29;20036;-71
2021/10/21 10:42:37;;;;;;;4.28;0.82;;;13.40;69.60;;;;;;4940813;29;20059;-79
2021/10/21 10:45:06;;;;;;;3.08;1.00;;;13.50;70.00;;;;;;4955558;29;20035;-77
2021/10/21 10:47:44;;;;;;;2.67;1.13;;;13.50;69.80;;;;;;4958357;29;20039;-78
2021/10/21 10:50:25;;;;;;;3.78;0.90;;;13.30;69.90;;;;;;4947565;29;20484;-72
2021/10/21 10:52:56;;;;;;;2.55;1.17;;;13.30;69.90;;;;;;4957389;29;20618;-80
2021/10/21 10:55:25;;;;;;;2.10;1.13;;;13.30;70.50;;;;;;4943809;29;20035;-78
2021/10/21 10:57:59;;;;;;;6.07;1.00;;;13.10;71.50;;;;;;4939950;29;20035;-79
2021/10/21 11:00:45;;;;;;;2.75;1.08;;;13.20;71.50;;;;;;4939967;29;20035;-79
2021/10/21 11:03:13;;;;;;;3.65;1.10;;;13.20;72.50;;;;;;4949513;29;20039;-78
2021/10/21 11:05:45;;;;;;;3.28;1.42;;;13.40;71.70;;;;;;4951625;28;20062;-75
2021/10/21 11:08:16;;;;;;;3.35;1.40;;;13.50;70.70;;;;;;4953125;29;20039;-76
2021/10/21 11:10:54;;;;;;;2.17;1.15;;;13.50;70.60;;;;;;4952895;29;20036;-77
2021/10/21 11:13:26;;;;;;;2.40;1.45;;;13.50;70.40;;;;;;4960792;28;20038;-75
2021/10/21 11:15:56;;;;;;;4.13;1.23;;;13.40;71.20;;;;;;4953007;29;20047;-75
2021/10/21 11:18:43;;;;;;;3.65;1.55;;;13.30;70.60;;;;;;4956785;28;20050;-75
2021/10/21 11:21:48;;;;;;;4.78;1.58;;;13.30;69.80;;;;;;4940773;29;20035;-74
2021/10/21 11:24:42;;;;;;;2.40;1.35;;;13.40;70.00;;;;;;4954400;28;20044;-78
2021/10/21 11:27:09;;;;;;;11.30;1.77;;;13.50;69.50;;;;;;4942110;29;20503;-78
2021/10/21 11:29:36;;;;;;;2.90;1.05;;;13.50;69.90;;;;;;4938098;29;20040;-75
2021/10/21 11:32:08;;;;;;;5.30;2.00;;;13.60;69.50;;;;;;4954647;29;20472;-77
2021/10/21 11:34:36;;;;;;;3.15;1.48;;;13.50;68.30;;;;;;4940007;29;20043;-78
2021/10/21 11:37:03;;;;;;;4.47;1.60;;;13.70;69.00;;;;;;4942259;29;20036;-76
2021/10/21 11:39:31;;;;;;;5.65;2.42;;;13.80;68.80;;;;;;4942159;29;20038;-77
2021/10/21 11:41:57;;;;;;;4.80;2.67;;;13.80;68.60;;;;;;4956692;28;20496;-78
2021/10/21 11:44:24;;;;;;;5.50;2.05;;;13.80;68.70;;;;;;4940609;29;20453;-78
2021/10/21 11:47:01;;;;;;;2.22;1.15;;;13.80;68.70;;;;;;4952835;29;20396;-80
2021/10/21 11:49:37;;;;;;;9.90;1.45;;;13.90;68.60;;;;;;4952591;29;20035;-75
2021/10/21 11:52:07;;;;;;;3.72;1.27;;;14.10;69.20;;;;;;4951038;29;20043;-77
2021/10/21 11:54:35;;;;;;;2.45;1.48;;;14.20;68.10;;;;;;4940784;29;20031;-79
2021/10/21 11:57:02;;;;;;;4.95;2.13;;;14.10;67.30;;;;;;4954371;29;20035;-77
2021/10/21 11:59:54;;;;;;;5.38;1.83;;;14.10;68.20;;;;;;4973328;28;20043;-77
2021/10/21 12:02:21;;;;;;;3.05;1.33;;;14.20;66.80;;;;;;4962270;28;20393;-77
2021/10/21 12:04:47;;;;;;;3.22;1.42;;;14.30;66.60;;;;;;4939731;29;20392;-77
2021/10/21 12:07:14;;;;;;;2.83;1.15;;;14.50;66.90;;;;;;4954908;28;20040;-77
2021/10/21 12:09:41;;;;;;;4.18;1.30;;;14.60;65.10;;;;;;4939139;29;20035;-78
2021/10/21 12:12:11;;;;;;;5.55;1.50;;;14.60;64.30;;;;;;4922097;29;20055;-77
2021/10/21 12:14:41;;;;;;;6.53;1.40;;;14.80;64.20;;;;;;4956689;29;20047;-78
2021/10/21 12:17:08;;;;;;;4.17;1.60;;;14.90;64.30;;;;;;4956606;28;20050;-77
2021/10/21 12:19:35;;;;;;;5.57;1.60;;;14.90;64.20;;;;;;4949252;29;20067;-79
2021/10/21 12:22:17;;;;;;;2.38;1.42;;;14.90;63.20;;;;;;4939352;28;20035;-77
2021/10/21 12:24:46;;;;;;;2.83;1.05;;;14.90;64.70;;;;;;4948260;29;20063;-74
2021/10/21 12:27:20;;;;;;;3.28;1.58;;;15.10;63.40;;;;;;4950542;28;20046;-75
2021/10/21 12:29:47;;;;;;;4.93;1.92;;;15.10;62.80;;;;;;4936672;29;20052;-74
2021/10/21 12:32:18;;;;;;;6.47;1.73;;;15.10;63.00;;;;;;4943958;29;20044;-74
2021/10/21 12:34:47;;;;;;;3.28;1.70;;;15.10;63.20;;;;;;4945062;29;20527;-75
2021/10/21 12:37:15;;;;;;;5.78;1.48;;;15.30;62.70;;;;;;4940936;29;20043;-74
2021/10/21 12:39:42;;;;;;;3.65;1.17;;;15.20;61.70;;;;;;4935478;29;20043;-75
2021/10/21 12:42:19;;;;;;;6.97;1.90;;;15.20;61.90;;;;;;4914227;29;20404;-74
2021/10/21 12:44:58;;;;;;;6.22;1.60;;;15.20;61.80;;;;;;4953800;29;20573;-76
2021/10/21 12:47:29;;;;;;;2.88;1.27;;;15.20;60.90;;;;;;4954437;29;20031;-75
2021/10/21 12:50:04;;;;;;;1.98;1.20;;;15.10;60.50;;;;;;4946306;29;20054;-76
2021/10/21 12:52:45;;;;;;;7.47;1.45;;;15.20;60.00;;;;;;4938047;29;20042;-73
2021/10/21 12:55:12;;;;;;;;;;;15.30;60.20;;;;;;4955450;28;20448;-74
2021/10/21 12:58:06;;;;;;;5.70;1.50;;;15.40;60.60;;;;;;4942731;29;19915;-73